Time;durP1;ratioP1;P1;durP2;ratioP2;P2;SDS_P1;SDS_P2;PMS_P1;PMS_P2;Temp;Humidity;BMP_temperature;BMP_pressure;BME280_temperature;BME280_humidity;BME280_pressure;Samples;Min_cycle;Max_cycle;Signal;HPM_P1;HPM_P2
2023/08/21 00:00:04;;;;;;;5.82;1.23;;;;;;;15.30;100.00;101309.69;4898953;29;20040;-95
2023/08/21 00:02:29;;;;;;;7.03;1.58;;;;;;;15.32;100.00;101303.44;4912973;29;20029;-95
2023/08/21 00:04:55;;;;;;;4.50;1.95;;;;;;;15.34;100.00;101299.00;4898864;29;20395;-95
2023/08/21 00:07:20;;;;;;;5.28;1.50;;;;;;;15.34;100.00;101300.75;4897827;29;20475;-95
2023/08/21 00:09:46;;;;;;;6.05;1.80;;;;;;;15.29;100.00;101297.59;4895471;29;20076;-95
2023/08/21 00:12:11;;;;;;;10.50;2.22;;;;;;;15.37;100.00;101300.56;4896160;29;20040;-95
2023/08/21 00:14:36;;;;;;;3.67;2.42;;;;;;;15.32;100.00;101297.41;4898635;29;20369;-95
2023/08/21 00:17:05;;;;;;;6.53;2.20;;;;;;;15.33;100.00;101309.47;4897178;29;20465;-95
2023/08/21 00:19:32;;;;;;;4.60;2.10;;;;;;;15.12;100.00;101312.50;4895524;29;20033;-95
2023/08/21 00:21:57;;;;;;;5.97;2.55;;;;;;;15.20;100.00;101307.66;4892044;29;20029;-95
2023/08/21 00:24:23;;;;;;;5.40;1.80;;;;;;;15.16;100.00;101294.94;4879744;29;20354;-95
2023/08/21 00:26:48;;;;;;;6.50;2.05;;;;;;;15.17;100.00;101294.03;4886649;29;20104;-95
2023/08/21 00:29:13;;;;;;;4.53;1.90;;;;;;;15.15;100.00;101290.69;4898328;29;20021;-94
2023/08/21 00:31:39;;;;;;;6.20;2.42;;;;;;;14.98;100.00;101295.16;4898541;29;20119;-96
2023/08/21 00:34:07;;;;;;;5.60;2.08;;;;;;;15.03;100.00;101301.84;4897936;29;20021;-93
2023/08/21 00:36:32;;;;;;;3.75;1.63;;;;;;;14.95;100.00;101292.75;4931929;29;20547;-94
2023/08/21 00:38:58;;;;;;;5.57;2.03;;;;;;;14.84;100.00;101307.34;4897159;29;20136;-96
2023/08/21 00:41:24;;;;;;;3.47;1.80;;;;;;;14.70;100.00;101295.19;4898291;29;20040;-94
2023/08/21 00:43:49;;;;;;;3.42;1.77;;;;;;;14.75;100.00;101293.13;4928922;29;20029;-95
2023/08/21 00:46:17;;;;;;;2.85;1.75;;;;;;;14.78;100.00;101292.97;4894216;29;20528;-95
2023/08/21 00:48:43;;;;;;;3.42;1.80;;;;;;;14.89;100.00;101300.94;4879111;29;20085;-95
2023/08/21 00:51:10;;;;;;;2.60;2.00;;;;;;;14.76;100.00;101289.63;4918430;29;20038;-95
2023/08/21 00:53:36;;;;;;;3.03;1.95;;;;;;;14.83;100.00;101295.28;4896371;29;20203;-95
2023/08/21 00:56:02;;;;;;;6.15;2.30;;;;;;;14.80;100.00;101291.09;4897698;29;20535;-95
2023/08/21 00:58:28;;;;;;;7.38;2.55;;;;;;;14.80;100.00;101291.09;4896809;29;20035;-95
2023/08/21 01:00:53;;;;;;;6.88;3.00;;;;;;;14.81;100.00;101292.78;4896700;29;20029;-95
2023/08/21 01:03:19;;;;;;;8.85;3.22;;;;;;;14.82;100.00;101299.63;4897813;29;20054;-95
2023/08/21 01:05:45;;;;;;;8.07;2.58;;;;;;;14.70;100.00;101295.19;4895002;29;20024;-94
2023/08/21 01:08:18;;;;;;;8.88;2.70;;;;;;;14.53;100.00;101288.38;4929483;29;20523;-94
2023/08/21 01:10:49;;;;;;;8.63;3.03;;;;;;;14.53;100.00;101284.09;4893811;29;20053;-95
2023/08/21 01:13:27;;;;;;;8.90;3.20;;;;;;;14.57;100.00;101291.69;4896012;29;20090;-95
2023/08/21 01:15:55;;;;;;;6.95;2.90;;;;;;;14.50;100.00;101286.81;4898795;29;20080;-94
2023/08/21 01:18:22;;;;;;;8.75;2.95;;;;;;;14.52;100.00;101287.56;4893723;29;20037;-95
2023/08/21 01:20:48;;;;;;;4.85;2.38;;;;;;;14.47;100.00;101286.19;4910323;29;20043;-95
2023/08/21 01:23:29;;;;;;;7.05;2.60;;;;;;;14.43;100.00;101285.50;4916816;29;20025;-95
2023/08/21 01:25:55;;;;;;;;;;;;;;;14.43;100.00;101288.09;4897253;29;20088;-95
2023/08/21 01:28:20;;;;;;;5.90;3.13;;;;;;;14.33;100.00;101277.44;4892661;29;20339;-95
2023/08/21 01:30:47;;;;;;;5.53;3.25;;;;;;;14.33;100.00;101274.84;4878639;29;20021;-96
2023/08/21 01:33:16;;;;;;;3.38;2.60;;;;;;;14.38;100.00;101282.34;4881091;29;20479;-95
2023/08/21 01:35:42;;;;;;;5.78;3.20;;;;;;;14.47;100.00;101278.38;4897260;29;20041;-96
2023/08/21 01:38:08;;;;;;;5.38;2.97;;;;;;;14.36;100.00;101276.41;4927693;29;20088;-95
2023/08/21 01:40:33;;;;;;;8.68;4.20;;;;;;;14.43;100.00;101275.13;4896460;29;20036;-95
2023/08/21 01:42:58;;;;;;;6.65;3.42;;;;;;;14.39;100.00;101281.44;4893410;29;20116;-95
2023/08/21 01:45:24;;;;;;;9.80;3.33;;;;;;;14.44;100.00;101279.41;4893915;29;20120;-95
2023/08/21 01:47:49;;;;;;;8.90;3.58;;;;;;;14.45;100.00;101275.88;4915026;29;20024;-95
2023/08/21 01:50:15;;;;;;;7.18;3.80;;;;;;;14.45;100.00;101275.88;4898141;29;20029;-95
2023/08/21 01:52:40;;;;;;;7.85;4.30;;;;;;;14.48;100.00;101280.88;4928584;29;20024;-95
2023/08/21 01:55:10;;;;;;;8.32;4.28;;;;;;;14.53;100.00;101281.47;4894072;29;20037;-96
2023/08/21 01:57:35;;;;;;;8.35;3.78;;;;;;;14.59;100.00;101287.22;4892980;29;20036;-94
2023/08/21 02:00:03;;;;;;;8.93;4.68;;;;;;;14.57;100.00;101283.88;4878124;29;20033;-95
2023/08/21 02:02:29;;;;;;;6.70;4.10;;;;;;;14.57;100.00;101286.47;4891802;29;20064;-95
2023/08/21 02:04:54;;;;;;;10.18;4.72;;;;;;;14.57;100.00;101284.72;4877844;29;20067;-96
2023/08/21 02:07:19;;;;;;;10.95;4.97;;;;;;;14.54;100.00;101279.72;4883894;29;20483;-95
2023/08/21 02:09:45;;;;;;;7.72;4.38;;;;;;;14.54;100.00;101296.13;4893769;29;20028;-95
2023/08/21 02:12:10;;;;;;;9.80;5.00;;;;;;;14.56;100.00;101293.44;4894723;29;20033;-95
2023/08/21 02:14:35;;;;;;;10.57;5.68;;;;;;;14.63;100.00;101291.28;4896316;29;20051;-95
2023/08/21 02:17:02;;;;;;;11.95;5.93;;;;;;;14.61;100.00;101295.78;4895531;29;20020;-95
2023/08/21 02:19:27;;;;;;;15.55;6.72;;;;;;;14.65;100.00;101292.88;4893371;29;20032;-95
2023/08/21 02:21:53;;;;;;;18.05;6.25;;;;;;;14.66;100.00;101296.31;4883651;29;20033;-95
2023/08/21 02:24:18;;;;;;;12.07;5.72;;;;;;;14.65;100.00;101298.06;4896323;29;20036;-94
2023/08/21 02:26:45;;;;;;;20.38;7.55;;;;;;;14.71;100.00;101304.66;4895009;29;20512;-96
2023/08/21 02:29:11;;;;;;;15.55;6.97;;;;;;;14.71;100.00;101296.88;4896369;29;20057;-96
2023/08/21 02:31:36;;;;;;;13.05;6.05;;;;;;;14.70;100.00;101290.00;4896340;29;20111;-95
2023/08/21 02:34:02;;;;;;;12.63;6.30;;;;;;;14.72;100.00;101299.38;4896473;29;20380;-94
2023/08/21 02:36:27;;;;;;;14.95;7.38;;;;;;;14.75;100.00;101293.13;4892218;29;20037;-95
2023/08/21 02:38:53;;;;;;;18.20;6.70;;;;;;;14.77;100.00;101301.69;4878797;29;20037;-95
2023/08/21 02:41:18;;;;;;;12.20;6.47;;;;;;;14.76;100.00;101292.22;4914458;29;20043;-95
2023/08/21 02:43:44;;;;;;;13.27;5.93;;;;;;;14.74;100.00;101291.47;4895133;29;20040;-96
2023/08/21 02:46:09;;;;;;;19.50;6.30;;;;;;;14.82;100.00;101304.00;4895986;29;20025;-96
2023/08/21 02:48:34;;;;;;;14.02;5.57;;;;;;;14.84;100.00;101297.78;4895337;29;20040;-95
2023/08/21 02:51:02;;;;;;;10.65;5.70;;;;;;;14.83;100.00;101296.13;4910538;29;20033;-95
2023/08/21 02:53:28;;;;;;;11.15;5.65;;;;;;;14.84;100.00;101291.75;4896196;29;20369;-95
2023/08/21 02:55:53;;;;;;;12.80;6.20;;;;;;;14.84;100.00;101300.38;4892302;29;20031;-95
2023/08/21 02:58:18;;;;;;;14.38;4.53;;;;;;;14.79;100.00;101292.03;4919273;29;20047;-95
2023/08/21 03:00:44;;;;;;;9.23;4.30;;;;;;;14.80;100.00;101298.06;4896590;29;20557;-95
2023/08/21 03:03:11;;;;;;;9.43;4.97;;;;;;;14.83;100.00;101292.69;4896224;29;20028;-96
2023/08/21 03:05:36;;;;;;;8.95;4.40;;;;;;;14.81;100.00;101292.78;4895376;29;20033;-95
2023/08/21 03:08:01;;;;;;;11.13;4.55;;;;;;;14.77;100.00;101291.28;4896469;29;20047;-94
2023/08/21 03:10:28;;;;;;;13.05;4.88;;;;;;;14.84;100.00;101292.59;4891811;29;20527;-95
2023/08/21 03:12:54;;;;;;;8.32;4.22;;;;;;;14.72;100.00;101301.13;4892554;29;20052;-95
2023/08/21 03:15:20;;;;;;;11.75;5.30;;;;;;;14.77;100.00;101299.09;4884238;29;20037;-96
2023/08/21 03:17:45;;;;;;;8.13;4.32;;;;;;;14.66;100.00;101302.34;4895634;29;20040;-95
2023/08/21 03:20:11;;;;;;;8.82;4.82;;;;;;;14.64;100.00;101292.97;4927918;29;20380;-95
2023/08/21 03:22:36;;;;;;;8.90;4.82;;;;;;;14.51;100.00;101296.28;4896636;29;20028;-95
2023/08/21 03:25:02;;;;;;;9.32;4.50;;;;;;;14.57;100.00;101292.50;4896134;29;20025;-95
2023/08/21 03:27:27;;;;;;;9.00;4.18;;;;;;;14.55;100.00;101295.19;4895530;29;20028;-94
2023/08/21 03:29:53;;;;;;;16.95;4.93;;;;;;;14.61;100.00;101295.78;4891146;29;20029;-96
2023/08/21 03:32:18;;;;;;;10.13;4.85;;;;;;;14.58;100.00;101291.56;4877456;29;20111;-95
2023/08/21 03:34:44;;;;;;;10.25;4.57;;;;;;;14.61;100.00;101287.97;4893230;29;20428;-95
2023/08/21 03:37:10;;;;;;;10.13;3.95;;;;;;;14.50;100.00;101294.59;4895945;29;20546;-95
2023/08/21 03:39:35;;;;;;;9.18;4.10;;;;;;;14.49;100.00;101285.16;4896163;29;20033;-95
2023/08/21 03:42:01;;;;;;;10.38;3.80;;;;;;;14.56;100.00;101293.44;4895457;29;20021;-95
2023/08/21 03:44:26;;;;;;;12.25;4.50;;;;;;;14.66;100.00;101293.72;4911221;29;20031;-95
2023/08/21 03:46:52;;;;;;;7.85;3.78;;;;;;;14.68;100.00;101286.66;4895747;29;20033;-95
2023/08/21 03:49:17;;;;;;;6.55;3.40;;;;;;;14.70;100.00;101288.25;4884302;29;20072;-94
2023/08/21 03:51:42;;;;;;;7.10;3.70;;;;;;;14.74;100.00;101288.88;4877561;29;20388;-95
2023/08/21 03:54:09;;;;;;;11.80;3.20;;;;;;;14.73;100.00;101284.63;4887979;29;20087;-95
2023/08/21 03:56:34;;;;;;;5.10;2.90;;;;;;;14.72;100.00;101282.94;4896070;29;20029;-96
2023/08/21 03:59:00;;;;;;;10.35;3.80;;;;;;;14.73;100.00;101282.88;4895693;29;20036;-95
2023/08/21 04:01:25;;;;;;;7.45;3.15;;;;;;;14.67;100.00;101280.63;4896552;29;20119;-95
2023/08/21 04:03:50;;;;;;;9.50;3.65;;;;;;;14.69;100.00;101278.78;4930033;29;20040;-95
2023/08/21 04:06:16;;;;;;;9.57;4.38;;;;;;;14.66;100.00;101275.53;4900032;29;20487;-95
2023/08/21 04:08:41;;;;;;;9.45;3.03;;;;;;;14.59;100.00;101277.66;4899706;29;20033;-95
2023/08/21 04:11:07;;;;;;;7.75;3.20;;;;;;;14.52;100.00;101274.56;4895415;29;20029;-95
2023/08/21 04:13:32;;;;;;;9.20;3.13;;;;;;;14.52;100.00;101282.38;4881966;29;20108;-95
2023/08/21 04:15:58;;;;;;;4.82;2.80;;;;;;;14.50;100.00;101273.81;4897864;29;20506;-95
2023/08/21 04:18:24;;;;;;;12.00;2.70;;;;;;;14.32;100.00;101274.94;4899070;29;20100;-95
2023/08/21 04:20:49;;;;;;;7.50;2.47;;;;;;;14.39;100.00;101278.84;4898261;29;20035;-95
2023/08/21 04:23:15;;;;;;;10.48;2.40;;;;;;;14.33;100.00;101274.00;4899056;29;20115;-95
2023/08/21 04:25:40;;;;;;;6.90;2.35;;;;;;;14.32;100.00;101277.53;4898318;29;20180;-96
2023/08/21 04:28:07;;;;;;;3.28;2.03;;;;;;;14.28;100.00;101273.44;4885159;29;20033;-95
2023/08/21 04:30:33;;;;;;;8.07;2.65;;;;;;;14.30;100.00;101279.38;4911800;29;20028;-95
2023/08/21 04:32:59;;;;;;;5.00;2.05;;;;;;;14.25;100.00;101276.25;4891450;29;20400;-94
2023/08/21 04:35:24;;;;;;;5.22;2.00;;;;;;;14.19;100.00;101274.00;4897782;29;20036;-95
2023/08/21 04:37:50;;;;;;;4.57;1.83;;;;;;;14.13;100.00;101281.22;4914766;29;20035;-95
2023/08/21 04:40:17;;;;;;;3.83;1.50;;;;;;;14.08;100.00;101278.06;4915072;29;20432;-95
2023/08/21 04:42:43;;;;;;;6.15;2.22;;;;;;;14.03;100.00;101285.28;4894790;29;20044;-95
2023/08/21 04:45:09;;;;;;;5.53;2.28;;;;;;;13.93;100.00;101284.16;4895695;29;20077;-96
2023/08/21 04:47:35;;;;;;;5.38;1.80;;;;;;;13.99;100.00;101282.94;4879821;29;20092;-96
2023/08/21 04:50:00;;;;;;;5.57;1.80;;;;;;;13.97;100.00;101290.81;4898902;29;20035;-96
2023/08/21 04:52:26;;;;;;;4.57;2.20;;;;;;;13.89;100.00;101295.63;4898663;29;20028;-95
2023/08/21 04:54:52;;;;;;;3.30;1.77;;;;;;;13.78;100.00;101296.25;4897621;29;20476;-95
2023/08/21 04:57:17;;;;;;;6.00;1.55;;;;;;;13.89;100.00;101304.25;4898006;29;20123;-95
2023/08/21 04:59:43;;;;;;;5.53;2.17;;;;;;;13.75;100.00;101300.75;4925448;23;20128;-95
2023/08/21 05:02:09;;;;;;;8.63;2.00;;;;;;;13.77;100.00;101301.53;4898279;29;20025;-96
2023/08/21 05:04:36;;;;;;;8.10;2.13;;;;;;;13.78;100.00;101293.66;4897171;29;20088;-95
2023/08/21 05:07:01;;;;;;;5.25;1.95;;;;;;;13.67;100.00;101302.03;4894292;29;20537;-96
2023/08/21 05:09:27;;;;;;;3.72;1.88;;;;;;;13.61;100.00;101302.41;4879215;29;20029;-95
2023/08/21 05:11:55;;;;;;;6.50;1.67;;;;;;;13.66;100.00;101297.78;4888226;29;20104;-95
2023/08/21 05:14:21;;;;;;;8.20;2.10;;;;;;;13.64;100.00;101293.59;4897288;29;20052;-95
2023/08/21 05:16:46;;;;;;;7.05;1.95;;;;;;;13.64;100.00;101299.63;4897378;29;20582;-96
2023/08/21 05:19:12;;;;;;;1.98;1.40;;;;;;;13.58;100.00;101294.78;4897161;29;20029;-96
2023/08/21 05:21:38;;;;;;;4.82;1.70;;;;;;;13.64;100.00;101298.78;4913605;29;20024;-95
2023/08/21 05:24:03;;;;;;;6.00;1.58;;;;;;;13.63;100.00;101297.09;4893619;29;20503;-95
2023/08/21 05:26:28;;;;;;;6.93;1.80;;;;;;;13.62;100.00;101290.25;4900947;29;20470;-96
2023/08/21 05:28:54;;;;;;;8.30;1.85;;;;;;;13.52;100.00;101292.53;4896532;29;20024;-94
2023/08/21 05:31:19;;;;;;;10.02;1.63;;;;;;;13.52;100.00;101300.31;4895898;29;20032;-96
2023/08/21 05:33:45;;;;;;;9.10;1.50;;;;;;;13.45;100.00;101288.59;4879688;29;20352;-96
2023/08/21 05:36:10;;;;;;;4.65;2.05;;;;;;;13.41;100.00;101305.25;4912259;29;20087;-96
2023/08/21 05:38:36;;;;;;;6.30;2.08;;;;;;;13.48;100.00;101309.19;4897464;29;20028;-95
2023/08/21 05:41:01;;;;;;;7.25;1.98;;;;;;;13.55;100.00;101310.50;4894915;29;20085;-95
2023/08/21 05:43:26;;;;;;;7.43;1.90;;;;;;;13.59;100.00;101317.22;4880718;29;20037;-96
2023/08/21 05:45:55;;;;;;;4.78;1.65;;;;;;;13.60;100.00;101324.06;4887310;29;20068;-96
2023/08/21 05:48:20;;;;;;;8.85;2.25;;;;;;;13.61;100.00;101320.56;4898565;29;20033;-96
2023/08/21 05:50:51;;;;;;;3.60;1.50;;;;;;;13.60;100.00;101312.84;4893378;29;20029;-96
2023/08/21 05:53:16;;;;;;;5.22;1.85;;;;;;;13.63;100.00;101318.72;4884740;29;20111;-96
2023/08/21 05:55:41;;;;;;;2.40;2.03;;;;;;;13.65;100.00;101313.41;4896058;29;20128;-94
2023/08/21 05:58:07;;;;;;;7.68;2.53;;;;;;;13.66;100.00;101317.72;4897243;29;20044;-93
2023/08/21 06:00:34;;;;;;;5.60;2.42;;;;;;;13.72;100.00;101316.50;4896414;29;20115;-96
2023/08/21 06:02:59;;;;;;;8.73;1.80;;;;;;;13.75;100.00;101317.16;4897751;29;20044;-93
2023/08/21 06:05:24;;;;;;;4.82;1.90;;;;;;;13.79;100.00;101316.06;4896830;29;20392;-93
2023/08/21 06:07:50;;;;;;;6.07;2.17;;;;;;;13.84;100.00;101315.81;4892733;29;20139;-95
2023/08/21 06:10:15;;;;;;;4.13;2.20;;;;;;;13.89;100.00;101313.78;4879144;29;20033;-94
2023/08/21 06:12:59;;;;;;;4.22;2.00;;;;;;;14.04;100.00;101325.88;4895881;29;20021;-94
2023/08/21 06:15:24;;;;;;;11.20;2.80;;;;;;;14.19;100.00;101320.72;4898021;29;20487;-95
2023/08/21 06:17:49;;;;;;;10.50;2.58;;;;;;;14.19;100.00;101325.91;4892785;29;20029;-95
2023/08/21 06:20:15;;;;;;;8.27;2.92;;;;;;;14.28;100.00;101320.19;4878403;29;20056;-95
2023/08/21 06:22:40;;;;;;;8.85;2.47;;;;;;;14.34;100.00;101312.06;4891519;29;20031;-96
2023/08/21 06:25:06;;;;;;;11.43;3.78;;;;;;;14.49;100.00;101321.53;4897186;29;20087;-95
2023/08/21 06:27:31;;;;;;;8.40;2.65;;;;;;;14.70;100.00;101327.22;4894634;29;20160;-94
2023/08/21 06:29:57;;;;;;;10.13;2.67;;;;;;;14.82;100.00;101323.03;4896305;29;20020;-93
2023/08/21 06:32:22;;;;;;;5.40;2.22;;;;;;;14.94;100.00;101330.06;4895444;29;20051;-91
2023/08/21 06:34:48;;;;;;;8.63;2.60;;;;;;;15.05;100.00;101326.81;4894269;29;20033;-92
2023/08/21 06:37:13;;;;;;;9.60;3.15;;;;;;;15.37;100.00;101335.19;4895714;29;20017;-92
2023/08/21 06:39:39;;;;;;;7.28;2.63;;;;;;;15.66;100.00;101331.69;4896715;29;20499;-94
2023/08/21 06:42:05;;;;;;;9.88;2.88;;;;;;;15.81;100.00;101331.53;4893801;29;20096;-91
2023/08/21 06:44:30;;;;;;;12.00;2.58;;;;;;;15.98;100.00;101332.22;4895272;29;20547;-93
2023/08/21 06:46:55;;;;;;;6.35;2.50;;;;;;;17.01;100.00;101333.06;4926877;29;20017;-94
2023/08/21 06:49:21;;;;;;;7.10;2.35;;;;;;;17.50;100.00;101337.38;4894651;29;20024;-92
2023/08/21 06:51:46;;;;;;;4.90;2.30;;;;;;;17.37;100.00;101334.00;4892039;29;20061;-93
2023/08/21 06:54:12;;;;;;;13.85;2.30;;;;;;;16.89;100.00;101330.38;4895625;29;20117;-94
2023/08/21 06:56:37;;;;;;;9.35;2.17;;;;;;;16.57;100.00;101329.97;4894384;29;20033;-95
2023/08/21 06:59:08;;;;;;;7.07;2.90;;;;;;;16.34;100.00;101347.16;4892675;29;20024;-96
2023/08/21 07:01:35;;;;;;;9.43;2.55;;;;;;;16.20;100.00;101340.25;4895840;29;20379;-95
2023/08/21 07:04:00;;;;;;;4.97;2.42;;;;;;;16.18;100.00;101339.53;4895440;29;20483;-96
2023/08/21 07:06:29;;;;;;;7.43;2.13;;;;;;;16.07;100.00;101347.25;4895703;29;20021;-95
2023/08/21 07:08:54;;;;;;;6.22;2.45;;;;;;;16.11;100.00;101348.69;4894501;29;20029;-95
2023/08/21 07:11:19;;;;;;;7.32;2.33;;;;;;;16.14;100.00;101355.47;4894474;29;20028;-94
2023/08/21 07:13:45;;;;;;;8.82;2.42;;;;;;;16.17;100.00;101363.91;4895496;29;20024;-95
2023/08/21 07:16:10;;;;;;;8.38;2.10;;;;;;;16.16;100.00;101357.03;4894587;29;20056;-95
2023/08/21 07:18:35;;;;;;;5.93;1.83;;;;;;;16.01;100.00;101356.25;4894929;29;20032;-94
2023/08/21 07:21:04;;;;;;;4.55;1.90;;;;;;;16.10;100.00;101362.66;4895298;29;20132;-95
2023/08/21 07:23:29;;;;;;;8.60;1.73;;;;;;;16.08;100.00;101353.28;4894255;29;20021;-94
2023/08/21 07:25:55;;;;;;;8.82;2.28;;;;;;;16.13;100.00;101357.22;4895307;29;20052;-95
2023/08/21 07:28:20;;;;;;;6.82;2.10;;;;;;;16.11;100.00;101348.69;4895501;29;20111;-94
2023/08/21 07:30:46;;;;;;;5.90;1.95;;;;;;;16.21;100.00;101349.72;4894051;29;20120;-94
2023/08/21 07:33:11;;;;;;;5.60;2.17;;;;;;;16.32;100.00;101356.03;4894309;29;20056;-92
2023/08/21 07:35:37;;;;;;;4.40;1.55;;;;;;;16.36;100.00;101349.66;4895609;29;20028;-96
2023/08/21 07:38:02;;;;;;;7.35;2.03;;;;;;;16.42;100.00;101351.84;4897666;29;20029;-96
2023/08/21 07:40:28;;;;;;;9.13;1.58;;;;;;;16.38;100.00;101345.19;4899297;29;20088;-95
2023/08/21 07:42:53;;;;;;;11.93;2.60;;;;;;;16.46;100.00;101342.91;4899959;29;20360;-96
2023/08/21 07:45:19;;;;;;;8.25;2.15;;;;;;;16.51;100.00;101345.16;4899036;29;20123;-96
2023/08/21 07:47:44;;;;;;;10.80;2.22;;;;;;;16.67;100.00;101354.44;4899707;29;20024;-96
2023/08/21 07:50:10;;;;;;;9.63;2.28;;;;;;;16.71;100.00;101347.28;4897842;29;20016;-96
2023/08/21 07:52:36;;;;;;;8.52;1.98;;;;;;;16.72;100.00;101342.88;4898502;29;20107;-96
2023/08/21 07:55:01;;;;;;;7.57;2.22;;;;;;;16.84;100.00;101345.50;4897980;29;20024;-96
2023/08/21 07:57:28;;;;;;;10.00;3.25;;;;;;;16.97;100.00;101342.91;4898488;29;20031;-96
2023/08/21 07:59:54;;;;;;;12.25;2.10;;;;;;;16.99;100.00;101343.59;4898399;29;20016;-96
2023/08/21 08:02:19;;;;;;;8.05;1.83;;;;;;;17.04;100.00;101341.50;4899684;29;20368;-96
2023/08/21 08:04:46;;;;;;;8.65;2.20;;;;;;;17.04;100.00;101338.06;4898786;29;20523;-96
2023/08/21 08:07:11;;;;;;;9.18;2.17;;;;;;;17.16;100.00;101344.19;4898632;29;20020;-96
2023/08/21 08:09:37;;;;;;;6.13;2.40;;;;;;;17.19;100.00;101333.53;4898756;29;20028;-96
2023/08/21 08:12:03;;;;;;;8.18;2.30;;;;;;;17.44;100.00;101330.84;4898892;29;20046;-96
2023/08/21 08:14:28;;;;;;;7.35;2.10;;;;;;;17.75;100.00;101324.22;4898328;29;20029;-96
2023/08/21 08:16:54;;;;;;;8.48;2.10;;;;;;;18.05;100.00;101319.50;4896032;29;20480;-96
2023/08/21 08:19:20;;;;;;;7.18;1.92;;;;;;;17.98;100.00;101324.31;4899460;29;20055;-96
2023/08/21 08:21:45;;;;;;;6.90;2.22;;;;;;;18.43;100.00;101323.56;4899248;29;20428;-96
2023/08/21 08:24:13;;;;;;;5.75;1.40;;;;;;;18.63;100.00;101315.06;4900683;29;20080;-96
2023/08/21 08:26:38;;;;;;;7.82;1.90;;;;;;;18.64;100.00;101327.16;4899138;29;20055;-96
2023/08/21 08:29:07;;;;;;;8.32;2.08;;;;;;;18.79;100.00;101336.44;4900640;29;20028;-96
2023/08/21 08:31:38;;;;;;;11.30;1.85;;;;;;;18.77;100.00;101337.53;4908057;29;20079;-96
2023/08/21 08:34:06;;;;;;;4.05;1.33;;;;;;;19.40;100.00;101350.88;4902075;29;20092;-96
2023/08/21 08:36:32;;;;;;;6.55;1.70;;;;;;;19.51;100.00;101348.25;4899645;29;20047;-96
2023/08/21 08:38:57;;;;;;;6.28;1.92;;;;;;;19.34;100.00;101349.59;4932958;29;20036;-96
2023/08/21 08:41:32;;;;;;;5.93;1.40;;;;;;;19.48;100.00;101353.69;4899245;29;20104;-96
2023/08/21 08:44:00;;;;;;;6.18;1.25;;;;;;;20.02;100.00;101347.59;4902556;29;20132;-96
2023/08/21 08:46:28;;;;;;;10.18;1.33;;;;;;;20.14;100.00;101352.75;4971037;23;20008;-96
2023/08/21 08:48:55;;;;;;;5.55;1.20;;;;;;;19.93;100.00;101353.56;4905177;29;20040;-96
2023/08/21 08:51:22;;;;;;;5.15;1.25;;;;;;;20.33;100.00;101363.34;4922267;29;20526;-96
2023/08/21 08:54:00;;;;;;;4.03;1.10;;;;;;;19.85;98.13;101356.00;4909496;29;20028;-96
2023/08/21 08:56:29;;;;;;;4.93;1.27;;;;;;;19.90;99.21;101356.47;4906150;29;20395;-96
2023/08/21 08:59:03;;;;;;;8.57;1.23;;;;;;;19.66;100.00;101351.41;4904865;29;20032;-96
2023/08/21 09:01:33;;;;;;;9.20;1.80;;;;;;;19.67;100.00;101359.16;4902815;29;20021;-96
2023/08/21 09:04:09;;;;;;;5.82;1.00;;;;;;;19.85;100.00;101362.06;4904367;29;20041;-96
2023/08/21 09:07:20;;;;;;;3.15;0.95;;;;;;;20.03;95.38;101345.78;4903720;29;20116;-96
2023/08/21 09:09:49;;;;;;;4.27;1.00;;;;;;;20.08;96.57;101352.28;4907849;29;20039;-96
2023/08/21 09:12:20;;;;;;;4.22;1.10;;;;;;;20.07;94.16;101345.41;4892043;29;20036;-96
2023/08/21 09:14:49;;;;;;;3.27;0.87;;;;;;;19.91;93.61;101350.25;5011054;23;20052;-96
2023/08/21 09:17:15;;;;;;;4.22;1.23;;;;;;;19.82;95.78;101361.47;4902286;29;20037;-94
2023/08/21 09:19:46;;;;;;;4.15;1.38;;;;;;;19.94;94.54;101365.72;4894624;29;20092;-96
2023/08/21 09:22:18;;;;;;;1.90;0.75;;;;;;;20.06;94.12;101353.38;4895290;29;20029;-95
2023/08/21 09:25:06;;;;;;;4.45;0.75;;;;;;;20.09;90.52;101358.38;4895835;29;20088;-96
2023/08/21 09:27:32;;;;;;;3.17;0.90;;;;;;;19.97;93.73;101348.91;4898120;29;20373;-95
2023/08/21 09:29:57;;;;;;;4.82;1.00;;;;;;;19.99;91.73;101352.22;4899832;29;20035;-95
2023/08/21 09:32:22;;;;;;;4.50;1.20;;;;;;;19.91;93.86;101349.41;4890002;29;20021;-94
2023/08/21 09:34:48;;;;;;;3.88;0.90;;;;;;;19.70;94.14;101352.00;4879303;29;20033;-95
2023/08/21 09:37:13;;;;;;;3.58;0.93;;;;;;;19.39;93.44;101344.00;4879389;29;20033;-95
2023/08/21 09:39:39;;;;;;;3.55;0.70;;;;;;;19.59;95.10;101345.00;4896200;29;20041;-95
2023/08/21 09:42:08;;;;;;;5.60;1.17;;;;;;;19.50;99.57;101341.31;4888423;29;20021;-96
2023/08/21 09:44:44;;;;;;;4.85;1.00;;;;;;;19.63;97.97;101339.38;4894566;29;20031;-96
2023/08/21 09:47:10;;;;;;;3.80;0.70;;;;;;;19.69;97.03;101334.63;4893082;29;20036;-95
2023/08/21 09:49:38;;;;;;;4.55;0.90;;;;;;;19.65;95.12;101340.09;4878741;29;20013;-95
2023/08/21 09:52:05;;;;;;;7.43;1.00;;;;;;;19.43;90.48;101345.38;4879020;29;20033;-95
2023/08/21 09:54:32;;;;;;;4.60;0.88;;;;;;;19.53;93.40;101345.47;4879126;29;20029;-95
2023/08/21 09:57:02;;;;;;;4.72;1.00;;;;;;;19.59;91.36;101342.38;4879083;29;20071;-96
2023/08/21 09:59:28;;;;;;;2.00;0.60;;;;;;;19.85;90.60;101351.59;4878871;29;20115;-96
2023/08/21 10:01:56;;;;;;;2.08;0.70;;;;;;;19.86;90.93;101344.56;4884701;29;20555;-95
2023/08/21 10:04:23;;;;;;;5.32;1.08;;;;;;;19.89;92.88;101345.13;4880819;29;20069;-96
2023/08/21 10:06:54;;;;;;;4.13;0.90;;;;;;;19.72;94.74;101345.69;4884834;29;20037;-95
2023/08/21 10:09:21;;;;;;;3.80;0.80;;;;;;;19.83;92.75;101342.19;4878417;29;20021;-95
2023/08/21 10:11:47;;;;;;;3.85;0.60;;;;;;;19.49;92.45;101344.09;4883795;29;20131;-95
2023/08/21 10:14:13;;;;;;;4.53;0.85;;;;;;;19.71;93.56;101340.59;4878648;29;20124;-95
2023/08/21 10:16:39;;;;;;;7.75;1.30;;;;;;;19.55;90.90;101328.69;4878573;29;20056;-96
2023/08/21 10:19:09;;;;;;;5.10;1.23;;;;;;;19.55;86.97;101323.44;4878594;29;20073;-96
2023/08/21 10:21:39;;;;;;;4.57;0.98;;;;;;;19.74;90.31;101322.00;4885395;29;20025;-95
2023/08/21 10:24:05;;;;;;;1.98;0.68;;;;;;;19.80;87.98;101316.22;4880386;29;20037;-96
2023/08/21 10:26:30;;;;;;;5.03;0.80;;;;;;;19.95;86.59;101320.22;4878591;29;20028;-95
2023/08/21 10:29:02;;;;;;;3.38;0.90;;;;;;;20.27;84.60;101321.94;4878434;29;20025;-96
2023/08/21 10:31:39;;;;;;;3.03;0.60;;;;;;;20.38;88.23;101311.34;4879383;29;20089;-96
2023/08/21 10:34:14;;;;;;;7.88;1.45;;;;;;;20.68;83.28;101309.75;4893473;29;20484;-95
2023/08/21 10:36:42;;;;;;;2.90;0.70;;;;;;;20.75;81.62;101308.22;4877918;29;20044;-96
2023/08/21 10:39:22;;;;;;;3.05;0.60;;;;;;;20.86;85.39;101304.69;4877925;29;20040;-96
2023/08/21 10:41:53;;;;;;;4.07;0.70;;;;;;;20.89;81.19;101304.41;4879078;29;20053;-94
2023/08/21 10:44:42;;;;;;;3.65;0.88;;;;;;;21.05;80.85;101303.91;4886068;29;20088;-96
2023/08/21 10:47:20;;;;;;;5.30;1.15;;;;;;;21.18;81.47;101309.72;4896509;29;20399;-95
2023/08/21 10:49:53;;;;;;;3.70;0.93;;;;;;;21.08;82.12;101316.75;4896607;29;20088;-95
2023/08/21 10:52:24;;;;;;;4.28;0.90;;;;;;;21.00;81.38;101322.69;4896695;29;20036;-96
2023/08/21 10:54:55;;;;;;;2.90;0.75;;;;;;;21.10;83.18;101320.06;4896221;29;20204;-96
2023/08/21 10:57:23;;;;;;;4.95;1.08;;;;;;;21.06;79.70;101321.28;4896669;29;20080;-95
2023/08/21 10:59:59;;;;;;;4.13;0.60;;;;;;;20.67;84.04;101326.44;4882209;29;20547;-95
2023/08/21 11:02:29;;;;;;;3.65;0.63;;;;;;;20.80;84.74;101326.19;4878090;29;20029;-96
2023/08/21 11:04:55;;;;;;;4.60;0.90;;;;;;;20.55;83.77;101324.81;4877735;29;20025;-96
2023/08/21 11:07:21;;;;;;;7.15;1.13;;;;;;;20.51;83.37;101316.41;4877721;29;20484;-96
2023/08/21 11:09:48;;;;;;;5.00;1.05;;;;;;;20.41;82.86;101315.50;4877712;29;20021;-95
2023/08/21 11:12:16;;;;;;;5.55;1.15;;;;;;;20.65;83.77;101313.44;4876778;29;20017;-96
2023/08/21 11:14:42;;;;;;;4.90;0.65;;;;;;;20.53;81.98;101315.31;4888775;29;20043;-96